Time;durP1;ratioP1;P1;durP2;ratioP2;P2;SDS_P1;SDS_P2;PMS_P1;PMS_P2;Temp;Humidity;BMP_temperature;BMP_pressure;BME280_temperature;BME280_humidity;BME280_pressure;Samples;Min_cycle;Max_cycle;Signal;HPM_P1;HPM_P2
2021/06/22 00:00:33;;;;;;;4.22;0.95;;;21.90;99.90;;;;;;14683488;23;20039;-58
2021/06/22 00:06:20;;;;;;;3.53;0.90;;;21.90;99.90;;;;;;14671409;23;20375;-57
2021/06/22 00:12:07;;;;;;;2.58;0.90;;;21.90;99.90;;;;;;14680809;23;20021;-57
2021/06/22 00:17:56;;;;;;;0.70;0.70;;;21.90;99.90;;;;;;14680946;23;20260;-57
2021/06/22 07:58:41;;;;;;;6.10;3.67;;;20.90;99.90;;;;;;12075494;27;20949;-53
2021/06/22 08:04:28;;;;;;;7.75;4.50;;;21.40;99.90;;;;;;12065792;27;20059;-55
2021/06/22 08:28:17;;;;;;;10.23;4.40;;;22.50;99.90;;;;;;12145749;27;20360;-54
2021/06/22 08:34:04;;;;;;;11.60;4.93;;;22.50;99.90;;;;;;12065763;28;20124;-58
2021/06/22 08:39:50;;;;;;;6.45;4.55;;;22.70;99.90;;;;;;12015818;28;20052;-55
2021/06/22 08:45:40;;;;;;;8.68;4.45;;;22.90;99.90;;;;;;12052409;28;20067;-56
2021/06/22 08:51:26;;;;;;;10.90;5.03;;;23.10;99.90;;;;;;12089237;28;20439;-57
2021/06/22 08:57:13;;;;;;;10.15;4.82;;;23.20;99.90;;;;;;12102358;28;20051;-54
2021/06/22 09:03:08;;;;;;;12.80;5.07;;;23.30;99.90;;;;;;12104530;28;20047;-54
2021/06/22 09:08:56;;;;;;;10.45;5.13;;;23.40;99.90;;;;;;12108678;28;20090;-57
2021/06/22 09:14:43;;;;;;;15.00;4.72;;;23.40;99.90;;;;;;12111812;28;20495;-57
2021/06/22 09:20:41;;;;;;;8.90;4.80;;;23.60;99.90;;;;;;12131591;28;20511;-57
2021/06/22 09:26:31;;;;;;;8.93;4.57;;;23.70;99.90;;;;;;12104172;28;20054;-55
2021/06/22 09:32:29;;;;;;;7.85;3.90;;;23.80;99.90;;;;;;12107418;28;20138;-56
2021/06/22 09:38:17;;;;;;;8.93;5.22;;;24.10;99.90;;;;;;12085279;28;20040;-56
2021/06/22 09:44:06;;;;;;;14.00;7.55;;;24.50;99.90;;;;;;12072048;28;20040;-57
2021/06/22 09:49:53;;;;;;;9.43;7.00;;;24.40;99.90;;;;;;12064181;28;20036;-55
2021/06/22 09:55:41;;;;;;;8.15;6.90;;;23.70;99.90;;;;;;12115410;28;20044;-55
2021/06/22 10:01:31;;;;;;;14.02;8.52;;;22.90;99.90;;;;;;12084349;28;20056;-53
2021/06/22 10:07:25;;;;;;;67.53;11.70;;;22.60;99.90;;;;;;12067062;28;20044;-53
2021/06/22 11:50:28;;;;;;;9.68;6.15;;;18.40;99.90;;;;;;12140834;27;20367;-59
2021/06/22 11:56:15;;;;;;;9.70;6.40;;;18.80;99.90;;;;;;12119482;27;20700;-59
2021/06/22 12:02:06;;;;;;;9.60;6.60;;;19.40;99.90;;;;;;12103713;28;20070;-59
2021/06/22 12:07:56;;;;;;;10.00;6.60;;;19.90;99.90;;;;;;12109377;27;20069;-59
2021/06/22 12:13:47;;;;;;;6.93;5.32;;;19.70;99.90;;;;;;12132985;27;20052;-59
2021/06/22 12:19:34;;;;;;;5.38;4.35;;;19.90;99.90;;;;;;12132065;27;20040;-59
2021/06/22 12:25:26;;;;;;;6.85;3.92;;;20.10;99.90;;;;;;12127120;27;20043;-59
2021/06/22 12:31:14;;;;;;;6.80;4.03;;;19.90;99.90;;;;;;12143344;27;20040;-57
2021/06/22 12:37:05;;;;;;;5.30;3.40;;;19.90;99.90;;;;;;12113503;27;20431;-59
2021/06/22 12:42:53;;;;;;;4.80;3.38;;;19.90;99.90;;;;;;12117459;27;20036;-59
2021/06/22 12:48:42;;;;;;;5.18;3.80;;;20.00;99.90;;;;;;12096209;28;20044;-59
2021/06/22 12:54:31;;;;;;;5.28;3.53;;;19.80;99.90;;;;;;12134171;27;20071;-58
2021/06/22 13:00:41;;;;;;;4.97;3.80;;;19.60;99.90;;;;;;12110477;28;20048;-58
2021/06/22 13:06:29;;;;;;;5.95;4.20;;;19.80;99.90;;;;;;12093742;27;20081;-60
2021/06/22 13:12:19;;;;;;;8.50;4.40;;;20.00;99.90;;;;;;12101565;28;20043;-60
2021/06/22 13:18:07;;;;;;;5.32;3.97;;;20.30;99.90;;;;;;12100599;28;20040;-59
2021/06/22 13:23:54;;;;;;;11.25;4.53;;;20.30;99.90;;;;;;12097898;27;20051;-56
2021/06/22 13:29:59;;;;;;;5.63;4.50;;;20.20;99.90;;;;;;12036209;28;20082;-60
2021/06/22 13:35:54;;;;;;;4.70;3.97;;;20.20;99.90;;;;;;12021528;28;20040;-60
2021/06/22 13:41:48;;;;;;;5.55;4.15;;;20.30;99.90;;;;;;12095104;27;20519;-61
2021/06/22 13:47:40;;;;;;;6.97;4.15;;;20.20;99.90;;;;;;12098855;27;20178;-61
2021/06/22 13:53:36;;;;;;;3.95;3.00;;;20.40;99.90;;;;;;12064465;27;20048;-60
2021/06/22 13:59:23;;;;;;;4.30;3.25;;;20.40;99.90;;;;;;12096829;27;20052;-58
2021/06/22 14:05:11;;;;;;;9.88;3.58;;;20.60;99.90;;;;;;12071530;28;20044;-59
2021/06/22 14:10:59;;;;;;;4.60;3.38;;;20.50;99.90;;;;;;12071699;27;20054;-59
2021/06/22 14:16:48;;;;;;;6.75;3.90;;;20.60;99.90;;;;;;12082043;27;20424;-59
2021/06/22 14:22:35;;;;;;;5.72;4.25;;;20.70;99.90;;;;;;12094665;27;20048;-57
2021/06/22 14:28:24;;;;;;;5.35;3.67;;;20.40;99.90;;;;;;12068845;27;20048;-59
2021/06/22 14:34:13;;;;;;;5.03;3.75;;;20.50;99.90;;;;;;12024215;28;20048;-56
2021/06/22 14:40:00;;;;;;;7.70;3.90;;;20.50;99.90;;;;;;12066342;28;20272;-58
2021/06/22 14:45:48;;;;;;;5.72;3.58;;;20.40;99.90;;;;;;12093585;28;20431;-58
2021/06/22 14:51:35;;;;;;;4.20;3.80;;;20.50;99.90;;;;;;12094513;27;20052;-58
2021/06/22 14:57:22;;;;;;;5.25;3.45;;;20.40;99.90;;;;;;12093953;28;20044;-58
2021/06/22 15:03:10;;;;;;;8.00;3.90;;;20.60;99.90;;;;;;12072457;27;20417;-58
2021/06/22 15:08:57;;;;;;;4.68;3.70;;;20.80;99.90;;;;;;12085518;28;20044;-53
2021/06/22 15:14:44;;;;;;;6.60;3.80;;;20.90;99.90;;;;;;12098848;27;20503;-58
2021/06/22 15:20:34;;;;;;;8.30;4.70;;;20.90;99.90;;;;;;12067944;27;20435;-57
2021/06/22 15:26:22;;;;;;;9.43;4.88;;;20.70;99.90;;;;;;12060338;28;20056;-58
2021/06/22 15:32:51;;;;;;;5.38;4.88;;;20.40;99.90;;;;;;12058795;28;20047;-58
2021/06/22 15:38:41;;;;;;;5.07;4.57;;;20.40;99.90;;;;;;12030030;27;20048;-58
2021/06/22 15:44:28;;;;;;;5.03;4.53;;;20.50;99.90;;;;;;12047201;28;20060;-58
2021/06/22 15:50:17;;;;;;;5.85;4.30;;;20.40;99.90;;;;;;12076437;27;20101;-57
2021/06/22 15:56:08;;;;;;;5.38;4.03;;;20.30;99.90;;;;;;12078487;27;20149;-57
